createdAt,value
2023-02-28T00:02:40.794Z,4.50
2023-02-28T00:07:39.170Z,4.50
2023-02-28T00:12:38.756Z,4.50
2023-02-28T00:17:37.822Z,4.50
2023-02-28T00:22:37.853Z,4.60
2023-02-28T00:27:36.844Z,4.30
2023-02-28T00:32:36.904Z,4.50
2023-02-28T00:37:35.462Z,4.50
2023-02-28T00:42:35.416Z,4.20
2023-02-28T00:47:34.128Z,4.20
2023-02-28T00:52:33.257Z,4.50
2023-02-28T00:57:31.435Z,4.10
2023-02-28T01:02:31.671Z,4.10
2023-02-28T01:07:29.845Z,4.10
2023-02-28T01:12:30.818Z,4.20
2023-02-28T01:17:29.221Z,4.00
2023-02-28T01:22:29.489Z,4.00
2023-02-28T01:27:28.263Z,4.00
2023-02-28T01:32:26.920Z,4.00
2023-02-28T01:37:25.315Z,4.00
2023-02-28T01:42:25.165Z,4.00
2023-02-28T01:47:25.279Z,3.90
2023-02-28T01:52:26.282Z,3.90
2023-02-28T01:57:38.723Z,3.90
2023-02-28T02:02:39.808Z,3.80
2023-02-28T02:07:41.125Z,3.80
2023-02-28T02:13:00.413Z,3.80
2023-02-28T02:18:03.538Z,4.00
2023-02-28T02:23:47.027Z,3.70
2023-02-28T02:29:09.003Z,3.60
2023-02-28T02:34:41.173Z,3.60
2023-02-28T02:39:47.234Z,3.50
2023-02-28T02:44:51.655Z,3.80
2023-02-28T02:49:53.567Z,3.50
2023-02-28T02:54:56.715Z,3.80
2023-02-28T03:06:45.553Z,3.40
2023-02-28T03:11:45.002Z,3.50
2023-02-28T03:17:10.272Z,3.40
2023-02-28T03:22:20.641Z,3.20
2023-02-28T03:27:27.033Z,3.20
2023-02-28T03:32:31.212Z,3.20
2023-02-28T03:37:32.878Z,3.10
2023-02-28T03:42:34.292Z,3.40
2023-02-28T03:47:38.096Z,3.40
2023-02-28T03:52:42.886Z,3.30
2023-02-28T03:57:45.921Z,3.20
2023-02-28T04:02:44.240Z,3.00
2023-02-28T04:07:44.437Z,2.90
2023-02-28T04:12:42.984Z,2.90
2023-02-28T04:17:41.510Z,2.90
2023-02-28T04:22:40.023Z,2.90
2023-02-28T04:27:39.599Z,2.80
2023-02-28T04:32:38.198Z,2.80
2023-02-28T04:37:38.170Z,3.00
2023-02-28T04:42:37.575Z,2.70
2023-02-28T04:47:37.482Z,2.70
2023-02-28T04:52:35.647Z,2.70
2023-02-28T04:57:34.500Z,2.60
2023-02-28T05:02:33.026Z,2.60
2023-02-28T05:07:32.992Z,2.50
2023-02-28T05:12:31.496Z,2.50
2023-02-28T05:17:29.715Z,2.50
2023-02-28T05:22:28.325Z,2.50
2023-02-28T05:27:29.649Z,2.50
2023-02-28T05:32:28.328Z,2.70
2023-02-28T05:37:26.565Z,2.40
2023-02-28T05:42:25.466Z,2.40
2023-02-28T05:47:24.992Z,2.40
2023-02-28T05:52:23.286Z,2.30
2023-02-28T05:57:24.574Z,2.60
2023-02-28T06:02:24.889Z,2.30
2023-02-28T06:07:23.505Z,2.20
2023-02-28T06:12:22.103Z,2.20
2023-02-28T06:17:20.297Z,2.30
2023-02-28T06:22:20.529Z,2.10
2023-02-28T06:27:19.063Z,2.10
2023-02-28T06:32:17.639Z,2.40
2023-02-28T06:37:16.018Z,2.30
2023-02-28T06:42:16.298Z,2.10
2023-02-28T06:47:14.824Z,2.10
2023-02-28T06:52:13.355Z,2.10
2023-02-28T06:57:11.535Z,2.00
2023-02-28T07:02:11.971Z,2.00
2023-02-28T07:07:10.508Z,2.10
2023-02-28T07:12:09.111Z,2.50
2023-02-28T07:17:09.261Z,2.20
2023-02-28T07:22:09.808Z,2.30
2023-02-28T07:27:08.513Z,2.40
2023-02-28T07:32:07.430Z,2.70
2023-02-28T07:37:06.467Z,2.60
2023-02-28T07:42:11.808Z,2.80
2023-02-28T07:47:12.187Z,2.80
2023-02-28T07:52:12.215Z,3.10
2023-02-28T07:57:12.541Z,3.30
2023-02-28T08:02:14.767Z,3.00
2023-02-28T08:07:15.380Z,3.10
2023-02-28T08:12:15.259Z,3.20
2023-02-28T08:17:14.198Z,3.50
2023-02-28T08:22:12.398Z,3.30
2023-02-28T08:27:10.769Z,3.40
2023-02-28T08:32:20.563Z,3.60
2023-02-28T08:37:27.895Z,3.70
2023-02-28T08:42:26.357Z,3.80
2023-02-28T08:47:26.259Z,4.30
2023-02-28T08:52:24.794Z,4.10
2023-02-28T08:57:23.021Z,4.20
2023-02-28T09:02:22.693Z,4.50
2023-02-28T09:07:22.672Z,4.70
2023-02-28T09:12:21.266Z,4.90
2023-02-28T09:17:20.330Z,5.00
2023-02-28T09:22:18.639Z,5.40
2023-02-28T09:27:18.621Z,5.20
2023-02-28T09:32:18.796Z,5.40
2023-02-28T09:37:17.416Z,5.60
2023-02-28T09:42:24.666Z,5.60
2023-02-28T09:47:32.305Z,6.10
2023-02-28T09:59:35.040Z,6.40
2023-02-28T10:04:52.906Z,6.50
2023-02-28T10:09:56.991Z,6.60
2023-02-28T10:15:00.388Z,6.70
2023-02-28T10:20:08.881Z,7.30
2023-02-28T10:25:19.322Z,7.50
2023-02-28T10:30:19.601Z,7.60
2023-02-28T10:35:20.201Z,7.60
2023-02-28T10:40:31.718Z,7.60
2023-02-28T10:45:33.617Z,7.70
2023-02-28T10:50:39.307Z,7.70
2023-02-28T10:55:38.713Z,8.10
2023-02-28T11:00:39.009Z,8.20
2023-02-28T11:05:38.673Z,8.50
2023-02-28T11:10:37.236Z,8.70
2023-02-28T11:15:37.710Z,8.80
2023-02-28T11:20:37.145Z,8.90
2023-02-28T11:25:39.096Z,9.30
2023-02-28T11:30:41.889Z,9.40
2023-02-28T11:35:42.103Z,9.70
2023-02-28T11:40:49.120Z,9.90
2023-02-28T11:46:08.286Z,10.00
2023-02-28T11:51:18.008Z,10.10
2023-02-28T11:56:25.742Z,10.10
2023-02-28T12:01:40.976Z,10.20
2023-02-28T12:06:47.010Z,10.20
2023-02-28T12:11:55.336Z,10.10
2023-02-28T12:17:08.316Z,10.10
2023-02-28T12:22:40.622Z,10.00
2023-02-28T12:27:42.632Z,10.00
2023-02-28T12:32:46.310Z,10.00
2023-02-28T12:37:49.796Z,9.80
2023-02-28T12:42:52.719Z,9.70
2023-02-28T12:47:58.535Z,9.70
2023-02-28T12:53:02.779Z,9.60
2023-02-28T12:58:10.901Z,9.30
2023-02-28T13:03:36.218Z,8.90
2023-02-28T13:09:00.810Z,8.80
2023-02-28T13:14:04.392Z,9.00
2023-02-28T13:19:14.909Z,8.90
2023-02-28T13:24:34.280Z,9.00
2023-02-28T13:29:36.703Z,9.00
2023-02-28T13:34:35.669Z,8.70
2023-02-28T13:39:51.785Z,8.80
2023-02-28T13:45:27.761Z,8.90
2023-02-28T13:50:31.736Z,8.50
2023-02-28T13:55:37.116Z,8.50
2023-02-28T14:00:54.381Z,8.90
2023-02-28T14:06:12.390Z,8.50
2023-02-28T14:11:28.047Z,8.10
2023-02-28T14:16:31.446Z,8.00
2023-02-28T14:21:33.559Z,7.90
2023-02-28T14:26:45.850Z,8.40
2023-02-28T14:31:53.905Z,8.20
2023-02-28T14:36:54.469Z,8.20
2023-02-28T14:41:53.330Z,8.20
2023-02-28T14:46:56.982Z,7.90
2023-02-28T14:52:10.989Z,8.00
2023-02-28T14:57:22.706Z,8.00
2023-02-28T15:02:25.062Z,7.70
2023-02-28T15:07:29.706Z,7.30
2023-02-28T15:12:28.573Z,7.40
2023-02-28T15:17:29.169Z,7.50
2023-02-28T15:22:33.889Z,7.70
2023-02-28T15:27:35.862Z,7.70
2023-02-28T15:32:38.386Z,7.50
2023-02-28T15:37:42.766Z,7.30
2023-02-28T15:42:41.773Z,7.60
2023-02-28T15:47:41.406Z,7.40
2023-02-28T15:52:43.404Z,7.40
2023-02-28T15:57:43.307Z,7.50
2023-02-28T16:02:43.631Z,7.50
2023-02-28T16:07:44.594Z,7.70
2023-02-28T16:17:44.433Z,7.80
2023-02-28T16:22:43.368Z,7.90
2023-02-28T16:27:42.532Z,7.90
2023-02-28T16:32:41.041Z,7.90
2023-02-28T16:37:40.966Z,8.00
2023-02-28T16:42:41.195Z,8.00
2023-02-28T16:47:39.724Z,8.00
2023-02-28T16:52:38.230Z,8.00
2023-02-28T16:57:38.242Z,8.00
2023-02-28T17:02:37.353Z,8.00
2023-02-28T17:07:36.190Z,7.90
2023-02-28T17:12:34.746Z,7.90
2023-02-28T17:17:34.582Z,7.80
2023-02-28T17:22:33.170Z,7.80
2023-02-28T17:27:31.708Z,7.80
2023-02-28T17:32:30.236Z,7.70
2023-02-28T17:37:30.357Z,7.70
2023-02-28T17:42:28.668Z,7.60
2023-02-28T17:47:27.233Z,7.50
2023-02-28T17:52:25.752Z,7.40
2023-02-28T17:57:25.634Z,7.40
2023-02-28T18:02:24.297Z,7.40
2023-02-28T18:07:25.983Z,7.30
2023-02-28T18:12:26.642Z,7.20
2023-02-28T18:17:25.187Z,7.20
2023-02-28T18:22:23.489Z,7.10
2023-02-28T18:27:22.058Z,7.00
2023-02-28T18:32:22.115Z,6.90
2023-02-28T18:37:20.820Z,6.90
2023-02-28T18:42:19.660Z,6.80
2023-02-28T18:47:18.219Z,6.70
2023-02-28T18:52:18.226Z,7.00
2023-02-28T18:57:16.734Z,6.70
2023-02-28T19:02:15.243Z,6.90
2023-02-28T19:07:14.793Z,6.60
2023-02-28T19:12:17.472Z,6.50
2023-02-28T19:17:16.560Z,6.40
2023-02-28T19:22:15.110Z,6.50
2023-02-28T19:27:15.010Z,6.30
2023-02-28T19:32:13.530Z,6.30
2023-02-28T19:37:12.150Z,6.30
2023-02-28T19:42:10.785Z,6.20
2023-02-28T19:47:10.534Z,6.20
2023-02-28T19:52:13.313Z,6.10
2023-02-28T19:57:14.143Z,6.10
2023-02-28T20:02:16.396Z,6.00
2023-02-28T20:07:14.929Z,6.00
2023-02-28T20:12:23.526Z,6.00
2023-02-28T20:17:24.843Z,6.10
2023-02-28T20:22:23.428Z,6.10
2023-02-28T20:27:21.949Z,5.80
2023-02-28T20:32:20.586Z,6.00
2023-02-28T20:37:20.619Z,5.70
2023-02-28T20:42:19.131Z,5.50
2023-02-28T20:47:17.778Z,5.40
2023-02-28T20:52:16.434Z,5.40
2023-02-28T20:57:16.443Z,5.50
2023-02-28T21:02:17.372Z,5.50
2023-02-28T21:07:16.407Z,5.60
2023-02-28T21:12:16.494Z,5.70
2023-02-28T21:17:15.060Z,5.30
2023-02-28T21:22:14.287Z,5.30
2023-02-28T21:27:12.809Z,5.40
2023-02-28T21:32:12.811Z,5.20
2023-02-28T21:37:12.040Z,5.20
2023-02-28T21:42:10.567Z,5.50
2023-02-28T21:47:09.040Z,5.10
2023-02-28T21:52:08.913Z,5.10
2023-02-28T21:57:07.449Z,5.00
2023-02-28T22:02:06.217Z,4.90
2023-02-28T22:07:04.866Z,4.90
2023-02-28T22:12:06.410Z,5.00
2023-02-28T22:17:04.992Z,4.80
2023-02-28T22:22:03.162Z,4.70
2023-02-28T22:27:01.651Z,4.70
2023-02-28T22:32:01.559Z,4.60
2023-02-28T22:37:00.004Z,4.60
2023-02-28T22:41:58.793Z,4.60
2023-02-28T22:46:57.263Z,4.50
2023-02-28T22:51:57.151Z,4.50
2023-02-28T22:56:55.613Z,4.50
2023-02-28T23:01:54.126Z,4.50
2023-02-28T23:06:52.595Z,4.50
2023-02-28T23:11:52.594Z,4.40
2023-02-28T23:16:54.408Z,4.40
2023-02-28T23:21:52.983Z,4.40
2023-02-28T23:26:54.390Z,4.30
2023-02-28T23:31:53.425Z,4.20
2023-02-28T23:36:52.172Z,4.20
2023-02-28T23:41:52.607Z,4.10
2023-02-28T23:46:53.169Z,4.00
2023-02-28T23:51:54.665Z,3.90
2023-02-28T23:56:54.844Z,3.90
